Time;durP1;ratioP1;P1;durP2;ratioP2;P2;SDS_P1;SDS_P2;PMS_P1;PMS_P2;Temp;Humidity;BMP_temperature;BMP_pressure;BME280_temperature;BME280_humidity;BME280_pressure;Samples;Min_cycle;Max_cycle;Signal;HPM_P1;HPM_P2
2021/01/14 00:02:24;;;;;;;0.00;0.00;;;;;;;10.58;80.83;100608.34;4899616;29;20365;-77
2021/01/14 00:04:50;;;;;;;0.20;0.10;;;;;;;10.64;80.85;100601.00;4893723;29;20025;-74
2021/01/14 00:07:16;;;;;;;0.20;0.10;;;;;;;10.70;80.50;100610.88;4889517;29;20050;-76
2021/01/14 00:09:48;;;;;;;0.45;0.45;;;;;;;10.56;80.73;100577.69;4890820;29;20041;-77
2021/01/14 00:16:01;;;;;;;;;;;;;;;;;;;;;
2021/01/14 00:19:05;;;;;;;0.10;0.10;;;;;;;10.75;80.49;100577.28;4894459;29;20056;-74
2021/01/14 00:21:31;;;;;;;0.20;0.20;;;;;;;10.72;80.59;100580.53;4911619;29;20029;-76
2021/01/14 00:23:57;;;;;;;0.00;0.00;;;;;;;10.68;80.53;100568.50;4896116;29;20057;-74
2021/01/14 00:26:22;;;;;;;0.20;0.10;;;;;;;10.62;80.80;100554.78;4893672;29;20044;-73
2021/01/14 00:28:51;;;;;;;0.20;0.10;;;;;;;10.65;80.46;100554.25;4858134;29;20037;-77
2021/01/14 00:31:20;;;;;;;0.30;0.20;;;;;;;10.61;80.86;100549.56;4892328;29;20092;-74
2021/01/14 00:33:46;;;;;;;0.25;0.10;;;;;;;10.68;80.67;100552.09;4893878;29;20044;-75
2021/01/14 00:36:14;;;;;;;0.10;0.05;;;;;;;10.60;80.73;100551.50;4892773;29;20033;-75
2021/01/14 00:38:58;;;;;;;0.10;0.10;;;;;;;10.59;80.72;100538.88;4889605;29;20061;-75
2021/01/14 00:41:27;;;;;;;0.08;0.08;;;;;;;10.56;80.70;100525.75;4867612;29;20052;-77
2021/01/14 00:44:04;;;;;;;0.15;0.05;;;;;;;10.65;81.08;100537.00;4886832;29;20096;-77
2021/01/14 00:46:33;;;;;;;0.10;0.10;;;;;;;10.74;80.62;100538.16;4884951;29;20053;-74
2021/01/14 00:48:59;;;;;;;0.10;0.10;;;;;;;10.64;80.45;100535.34;4889416;29;20124;-75
2021/01/14 00:51:32;;;;;;;0.75;0.17;;;;;;;10.65;80.82;100521.41;4888899;29;20501;-74
2021/01/14 00:53:58;;;;;;;0.10;0.05;;;;;;;10.59;81.06;100511.53;4891936;29;20043;-75
2021/01/14 00:56:32;;;;;;;0.13;0.08;;;;;;;10.75;80.69;100525.31;4893043;29;20021;-74
2021/01/14 00:58:58;;;;;;;0.13;0.05;;;;;;;10.64;80.81;100508.84;4911216;29;20584;-75
2021/01/14 01:01:24;;;;;;;1.02;0.10;;;;;;;10.73;80.88;100519.28;4891746;29;20021;-72
2021/01/14 01:03:51;;;;;;;0.00;0.00;;;;;;;10.62;80.53;100499.25;4904291;29;20021;-74
2021/01/14 01:06:17;;;;;;;0.40;0.20;;;;;;;10.75;80.41;100514.38;4893706;29;20029;-73
2021/01/14 01:08:42;;;;;;;0.17;0.03;;;;;;;10.73;80.38;100511.91;4882513;29;20076;-75
2021/01/14 01:11:08;;;;;;;1.23;0.57;;;;;;;10.71;81.01;100502.31;4888296;29;20040;-74
2021/01/14 01:13:33;;;;;;;0.20;0.20;;;;;;;10.75;80.61;100509.72;4887646;29;20033;-73
2021/01/14 01:15:59;;;;;;;0.15;0.08;;;;;;;10.63;80.77;100490.78;4881334;29;20021;-74
2021/01/14 01:18:24;;;;;;;0.08;0.05;;;;;;;10.70;80.60;100506.13;4889099;29;20032;-72
2021/01/14 01:20:53;;;;;;;0.13;0.08;;;;;;;10.72;80.43;100482.91;4872775;29;20097;-73
2021/01/14 01:23:18;;;;;;;0.30;0.30;;;;;;;10.72;80.71;100482.06;4870517;29;20116;-71
2021/01/14 01:25:44;;;;;;;0.95;0.10;;;;;;;10.71;80.86;100474.97;4891308;29;20029;-73
2021/01/14 01:28:09;;;;;;;0.40;0.10;;;;;;;10.68;80.85;100470.03;4861275;29;20036;-76
2021/01/14 01:30:35;;;;;;;0.20;0.10;;;;;;;10.70;80.81;100485.06;4880100;29;20041;-74
2021/01/14 01:33:00;;;;;;;0.10;0.00;;;;;;;10.68;80.66;100475.50;4889098;29;20032;-75
2021/01/14 01:35:26;;;;;;;0.00;0.00;;;;;;;10.65;81.00;100472.19;4890987;29;20045;-73
2021/01/14 01:37:51;;;;;;;0.00;0.00;;;;;;;10.56;81.02;100468.31;4890727;29;20334;-74
2021/01/14 01:40:17;;;;;;;0.38;0.10;;;;;;;10.56;81.32;100459.31;4883694;29;20033;-74
2021/01/14 01:42:42;;;;;;;0.10;0.10;;;;;;;10.56;81.50;100468.31;4887952;29;20041;-73
2021/01/14 01:45:11;;;;;;;0.10;0.10;;;;;;;10.54;81.04;100465.03;4882839;29;20036;-73
2021/01/14 01:47:37;;;;;;;0.65;0.05;;;;;;;10.56;81.17;100471.06;4871171;29;20538;-73
2021/01/14 01:50:05;;;;;;;0.30;0.10;;;;;;;10.51;80.84;100462.00;4886886;29;20041;-74
2021/01/14 01:52:34;;;;;;;2.05;0.30;;;;;;;10.60;81.12;100469.44;4882571;29;20032;-73
2021/01/14 01:55:01;;;;;;;0.00;0.00;;;;;;;10.63;80.85;100462.59;4881457;29;20495;-73
2021/01/14 01:57:30;;;;;;;0.10;0.00;;;;;;;10.60;80.96;100463.97;4886736;29;20025;-73
2021/01/14 01:59:56;;;;;;;0.10;0.10;;;;;;;10.70;81.17;100479.59;4881439;29;20064;-73
2021/01/14 02:02:24;;;;;;;1.65;0.00;;;;;;;10.71;80.91;100481.25;4885923;29;20033;-73
2021/01/14 02:04:50;;;;;;;0.00;0.00;;;;;;;10.76;80.62;100477.72;4883173;29;20528;-73
2021/01/14 02:07:35;;;;;;;0.10;0.00;;;;;;;10.77;80.41;100474.72;4884029;29;20484;-74
2021/01/14 02:10:03;;;;;;;0.15;0.10;;;;;;;10.80;80.53;100473.38;4883917;29;20037;-74
2021/01/14 02:12:40;;;;;;;0.08;0.08;;;;;;;10.86;80.72;100463.28;4884165;29;20122;-72
2021/01/14 02:15:12;;;;;;;0.10;0.10;;;;;;;10.88;80.45;100470.13;4877885;29;20036;-73
2021/01/14 02:17:37;;;;;;;1.75;0.10;;;;;;;10.84;80.38;100449.88;4900135;29;20025;-73
2021/01/14 02:20:04;;;;;;;0.10;0.00;;;;;;;10.83;80.30;100446.31;4883793;29;20087;-75
2021/01/14 02:22:37;;;;;;;0.10;0.10;;;;;;;10.91;80.10;100458.66;4876193;29;20024;-74
2021/01/14 02:25:07;;;;;;;0.17;0.10;;;;;;;10.88;80.56;100453.72;4884542;29;20475;-74
2021/01/14 02:27:35;;;;;;;3.03;0.20;;;;;;;10.81;80.25;100447.66;4884291;29;20081;-73
2021/01/14 02:30:02;;;;;;;0.20;0.20;;;;;;;10.87;80.21;100452.06;4886644;29;20052;-74
2021/01/14 02:32:28;;;;;;;1.77;0.43;;;;;;;10.87;80.18;100446.59;4882112;29;20037;-74
2021/01/14 02:34:53;;;;;;;0.45;0.20;;;;;;;10.88;80.36;100459.19;4873005;29;20035;-75
2021/01/14 02:37:19;;;;;;;0.30;0.28;;;;;;;10.86;80.45;100450.41;4877548;29;20372;-75
2021/01/14 02:39:44;;;;;;;0.28;0.20;;;;;;;10.85;80.27;100448.78;4872490;29;20029;-75
2021/01/14 02:42:10;;;;;;;0.38;0.10;;;;;;;10.80;80.90;100440.53;4876824;29;20065;-76
2021/01/14 02:44:35;;;;;;;0.20;0.10;;;;;;;10.81;80.75;100443.00;4873108;29;20029;-75
2021/01/14 02:47:04;;;;;;;0.70;0.30;;;;;;;10.83;80.76;100440.00;4883666;29;20047;-78
2021/01/14 02:49:33;;;;;;;0.10;0.10;;;;;;;10.86;80.65;100442.19;4881954;29;20025;-79
2021/01/14 02:52:02;;;;;;;5.35;0.30;;;;;;;10.84;80.44;100427.97;4859352;29;20040;-79
2021/01/14 02:54:29;;;;;;;0.20;0.20;;;;;;;10.86;80.96;100423.06;4883483;29;20025;-78
2021/01/14 02:56:55;;;;;;;0.03;0.03;;;;;;;10.85;80.98;100421.44;4871639;29;20076;-78
2021/01/14 02:59:23;;;;;;;1.02;0.10;;;;;;;10.82;80.79;100416.50;4876108;29;20522;-80
2021/01/14 03:01:48;;;;;;;0.20;0.10;;;;;;;10.78;81.10;100404.44;4877709;29;20025;-78
2021/01/14 03:04:14;;;;;;;6.38;0.30;;;;;;;10.87;81.08;100413.75;4857398;29;20036;-76
2021/01/14 03:06:39;;;;;;;8.60;0.60;;;;;;;10.81;81.06;100406.63;4882282;29;20096;-76
2021/01/14 03:09:05;;;;;;;0.10;0.10;;;;;;;10.81;81.14;100409.38;4879432;29;20044;-77
2021/01/14 03:11:32;;;;;;;0.68;0.20;;;;;;;10.83;81.67;100412.66;4876229;29;20056;-76
2021/01/14 03:13:58;;;;;;;0.52;0.13;;;;;;;10.82;81.94;100408.28;4870387;29;20454;-76
2021/01/14 03:16:24;;;;;;;0.80;0.30;;;;;;;10.74;81.87;100403.31;4875438;29;20025;-77
2021/01/14 03:18:53;;;;;;;0.30;0.20;;;;;;;10.76;82.32;100388.28;4874475;29;20041;-77
2021/01/14 03:21:23;;;;;;;0.68;0.30;;;;;;;10.75;82.23;100396.78;4860621;29;20033;-77
2021/01/14 03:23:49;;;;;;;0.30;0.30;;;;;;;10.79;82.76;100400.59;4879893;29;20025;-77
2021/01/14 03:26:15;;;;;;;0.20;0.20;;;;;;;10.79;82.44;100400.59;4883313;29;20088;-78
2021/01/14 03:28:41;;;;;;;0.68;0.30;;;;;;;10.80;82.93;100396.78;4878484;29;20065;-78
2021/01/14 03:31:09;;;;;;;0.55;0.20;;;;;;;10.77;82.50;100386.38;4896135;29;20032;-77
2021/01/14 03:33:35;;;;;;;0.28;0.20;;;;;;;10.81;82.60;100391.03;4875548;29;20025;-78
2021/01/14 03:36:00;;;;;;;1.20;0.30;;;;;;;10.81;82.74;100385.56;4880718;29;20033;-78
2021/01/14 03:38:25;;;;;;;1.90;0.50;;;;;;;10.77;82.96;100380.91;4877870;29;20080;-78
2021/01/14 03:40:51;;;;;;;0.20;0.20;;;;;;;10.75;83.25;100370.22;4880356;29;20159;-78
2021/01/14 03:43:19;;;;;;;0.47;0.30;;;;;;;10.77;83.09;100375.44;4873955;29;20112;-77
2021/01/14 03:45:44;;;;;;;0.30;0.28;;;;;;;10.79;82.51;100367.78;4872682;29;20053;-76
2021/01/14 03:48:09;;;;;;;0.40;0.20;;;;;;;10.81;82.86;100376.53;4879061;29;20028;-76
2021/01/14 03:50:35;;;;;;;0.50;0.20;;;;;;;10.82;83.04;100370.00;4876637;29;20164;-76
2021/01/14 03:53:00;;;;;;;0.25;0.20;;;;;;;10.81;82.96;100360.94;4872293;29;20021;-77
2021/01/14 03:55:26;;;;;;;0.10;0.10;;;;;;;10.81;82.38;100355.47;4876272;29;20476;-76
2021/01/14 03:57:52;;;;;;;0.60;0.20;;;;;;;10.82;83.09;100351.66;4876221;29;20033;-77
2021/01/14 04:00:18;;;;;;;0.10;0.10;;;;;;;10.82;82.69;100350.84;4878370;29;20131;-77
2021/01/14 04:02:43;;;;;;;2.05;0.20;;;;;;;10.85;82.99;100357.66;4883955;29;20040;-76
2021/01/14 04:05:11;;;;;;;0.43;0.30;;;;;;;10.88;82.38;100366.16;4858633;29;20483;-76
2021/01/14 04:07:37;;;;;;;2.47;0.68;;;;;;;10.85;82.92;100344.84;4880653;29;20477;-77
2021/01/14 04:10:03;;;;;;;0.20;0.17;;;;;;;10.82;82.25;100346.19;4873141;29;20063;-76
2021/01/14 04:12:29;;;;;;;0.15;0.15;;;;;;;10.85;82.92;100339.34;4866256;29;20511;-75
2021/01/14 04:14:57;;;;;;;0.10;0.10;;;;;;;10.86;82.62;100346.44;4874032;29;20029;-76
2021/01/14 04:17:23;;;;;;;0.13;0.10;;;;;;;10.88;82.33;100338.81;4879061;29;20025;-76
2021/01/14 04:19:48;;;;;;;0.15;0.10;;;;;;;10.87;82.52;100320.75;4875832;29;20494;-77
2021/01/14 04:22:14;;;;;;;0.10;0.10;;;;;;;10.87;82.35;100326.22;4879496;29;20075;-76
2021/01/14 04:24:40;;;;;;;1.35;0.13;;;;;;;10.86;82.33;100324.56;4869061;29;20424;-76
2021/01/14 04:27:06;;;;;;;0.43;0.10;;;;;;;10.85;82.63;100322.94;4877521;29;20041;-76
2021/01/14 04:29:31;;;;;;;0.60;0.20;;;;;;;10.79;82.42;100313.06;4870933;29;20036;-76
2021/01/14 04:31:57;;;;;;;0.10;0.10;;;;;;;10.80;82.61;100321.00;4868058;29;20036;-77
2021/01/14 04:34:22;;;;;;;0.95;0.20;;;;;;;10.79;82.59;100315.78;4880905;29;20045;-77
2021/01/14 04:36:55;;;;;;;0.20;0.20;;;;;;;10.84;82.57;100315.81;4879250;29;20037;-77
2021/01/14 04:39:21;;;;;;;0.20;0.20;;;;;;;10.75;82.63;100299.13;4879269;29;20033;-78
2021/01/14 04:41:51;;;;;;;0.65;0.38;;;;;;;10.78;82.97;100305.97;4867382;29;20424;-78
2021/01/14 04:44:17;;;;;;;0.43;0.30;;;;;;;10.77;82.96;100301.59;4883730;29;20025;-78
2021/01/14 04:46:48;;;;;;;0.80;0.30;;;;;;;10.76;83.15;100292.56;4868314;29;20048;-76
2021/01/14 04:49:16;;;;;;;0.10;0.10;;;;;;;10.78;83.17;100292.28;4891060;29;20075;-76
2021/01/14 04:51:44;;;;;;;1.45;0.40;;;;;;;10.75;82.93;100284.63;4885409;29;20029;-78
2021/01/14 04:54:14;;;;;;;0.90;0.38;;;;;;;10.75;83.08;100285.44;4884629;29;20475;-79
2021/01/14 04:56:40;;;;;;;0.10;0.10;;;;;;;10.73;83.52;100278.59;4880667;29;20068;-78
2021/01/14 04:59:05;;;;;;;0.73;0.20;;;;;;;10.72;82.97;100269.59;4873400;29;20047;-78
2021/01/14 05:01:41;;;;;;;3.78;0.22;;;;;;;10.75;82.86;100273.69;4860659;29;20085;-79
2021/01/14 05:04:09;;;;;;;1.27;0.30;;;;;;;10.73;83.46;100270.38;4878442;29;20123;-77
2021/01/14 05:06:38;;;;;;;0.10;0.10;;;;;;;10.76;83.24;100273.41;4891704;29;20072;-78
2021/01/14 05:09:07;;;;;;;1.38;0.25;;;;;;;10.75;82.96;100260.03;4875764;29;20032;-78
2021/01/14 05:11:41;;;;;;;1.85;0.73;;;;;;;10.78;82.86;100259.47;4874774;29;20037;-77
2021/01/14 05:14:07;;;;;;;0.30;0.20;;;;;;;10.73;82.98;100254.81;4871314;29;20025;-77
2021/01/14 05:16:32;;;;;;;1.05;0.30;;;;;;;10.77;82.99;100249.63;4869718;29;20029;-78
2021/01/14 05:18:58;;;;;;;1.48;0.30;;;;;;;10.77;82.38;100244.16;4881428;29;20064;-77
2021/01/14 05:21:26;;;;;;;2.35;0.32;;;;;;;10.76;83.04;100250.69;4866831;29;20472;-77
2021/01/14 05:24:10;;;;;;;1.50;0.50;;;;;;;10.78;82.62;100243.06;4867601;29;20033;-77
2021/01/14 05:26:36;;;;;;;0.05;0.05;;;;;;;10.75;82.84;100241.69;4876000;29;20029;-77
2021/01/14 05:29:19;;;;;;;0.17;0.10;;;;;;;10.83;82.53;100238.41;4877097;29;20448;-76
2021/01/14 05:31:46;;;;;;;1.23;0.20;;;;;;;10.81;82.59;100239.78;4874373;29;20044;-77
2021/01/14 05:34:16;;;;;;;0.13;0.13;;;;;;;10.79;82.92;100225.53;4875229;29;20029;-77
2021/01/14 05:36:50;;;;;;;1.63;0.95;;;;;;;10.83;82.77;100227.47;4867622;29;20144;-77
2021/01/14 05:39:17;;;;;;;0.45;0.20;;;;;;;10.78;82.58;100223.91;4875578;29;20052;-76
2021/01/14 05:41:43;;;;;;;0.08;0.08;;;;;;;10.78;82.71;100218.44;4871118;29;20823;-77
2021/01/14 05:44:08;;;;;;;3.70;0.20;;;;;;;10.74;82.90;100211.88;4874995;29;20048;-75
2021/01/14 05:46:33;;;;;;;0.20;0.13;;;;;;;10.72;83.06;100203.09;4841312;29;20049;-76
2021/01/14 05:49:07;;;;;;;0.22;0.10;;;;;;;10.76;82.91;100220.63;4870875;29;20041;-76
2021/01/14 05:51:33;;;;;;;0.10;0.10;;;;;;;10.72;82.81;100208.56;4870333;29;20104;-76
2021/01/14 05:54:05;;;;;;;0.65;0.30;;;;;;;10.77;82.81;100214.06;4872266;29;20029;-76
2021/01/14 05:56:33;;;;;;;0.30;0.30;;;;;;;10.77;82.97;100208.59;4869921;29;20116;-77
2021/01/14 05:58:59;;;;;;;0.20;0.10;;;;;;;10.76;83.18;100204.19;4874423;29;20039;-77
2021/01/14 06:01:25;;;;;;;0.20;0.20;;;;;;;10.80;83.25;100202.56;4875210;29;20037;-77
2021/01/14 06:03:51;;;;;;;0.10;0.10;;;;;;;10.79;82.72;100193.56;4866361;29;20172;-77
2021/01/14 06:06:16;;;;;;;0.10;0.10;;;;;;;10.81;82.92;100193.28;4875459;29;20033;-76
2021/01/14 06:08:43;;;;;;;0.20;0.10;;;;;;;10.80;82.93;100178.75;4877575;29;20044;-76
2021/01/14 06:11:22;;;;;;;0.17;0.17;;;;;;;10.82;82.95;100187.53;4858749;29;20025;-78
2021/01/14 06:13:49;;;;;;;2.80;0.20;;;;;;;10.81;82.91;100174.13;4870412;29;20040;-77
2021/01/14 06:16:16;;;;;;;0.20;0.15;;;;;;;10.82;82.95;100173.03;4877044;29;20041;-76
2021/01/14 06:19:01;;;;;;;0.28;0.28;;;;;;;10.82;82.72;100175.78;4849367;29;20052;-78
2021/01/14 06:21:49;;;;;;;0.10;0.10;;;;;;;10.85;83.07;100172.50;4870203;29;20092;-76
2021/01/14 06:24:20;;;;;;;0.10;0.10;;;;;;;10.87;83.11;100172.22;4876918;29;20104;-77
2021/01/14 06:26:47;;;;;;;4.10;0.30;;;;;;;10.87;83.18;100170.28;4900204;29;20033;-79
2021/01/14 06:29:17;;;;;;;0.10;0.10;;;;;;;10.87;83.11;100167.56;4875156;29;20115;-77
2021/01/14 06:31:42;;;;;;;1.33;0.30;;;;;;;10.90;82.71;100163.47;4888548;29;20081;-77
2021/01/14 06:34:10;;;;;;;0.30;0.20;;;;;;;10.93;82.65;100157.44;4882841;29;20032;-77
2021/01/14 06:36:39;;;;;;;0.25;0.20;;;;;;;10.95;82.81;100152.50;4888339;29;20037;-77
2021/01/14 06:39:13;;;;;;;0.90;0.10;;;;;;;10.95;82.42;100150.59;4872490;29;20440;-78
2021/01/14 06:41:40;;;;;;;0.30;0.30;;;;;;;10.95;82.61;100150.59;4866874;29;20065;-77
2021/01/14 06:44:16;;;;;;;0.10;0.10;;;;;;;10.87;82.33;100139.41;4871712;29;20041;-78
2021/01/14 06:46:43;;;;;;;0.73;0.20;;;;;;;10.91;82.86;100135.03;4867376;29;20049;-78
2021/01/14 06:49:12;;;;;;;0.20;0.20;;;;;;;10.87;82.51;100129.25;4880340;29;20033;-78
2021/01/14 06:52:09;;;;;;;0.32;0.10;;;;;;;10.92;82.32;100142.09;4873150;29;20029;-78
2021/01/14 06:54:39;;;;;;;0.60;0.10;;;;;;;10.92;82.60;100125.69;4873846;29;20033;-78
2021/01/14 06:57:14;;;;;;;0.28;0.10;;;;;;;10.88;82.96;100124.59;4877474;29;20116;-80
2021/01/14 06:59:41;;;;;;;0.30;0.28;;;;;;;10.77;83.24;100118.34;4872828;29;20081;-79
2021/01/14 07:02:06;;;;;;;1.33;0.10;;;;;;;10.83;83.38;100117.22;4881857;29;20502;-79
2021/01/14 07:04:43;;;;;;;0.38;0.10;;;;;;;10.85;83.05;100119.69;4882342;29;20029;-79
2021/01/14 07:07:25;;;;;;;0.20;0.10;;;;;;;10.87;83.17;100115.59;4888092;29;20476;-79
2021/01/14 07:10:11;;;;;;;0.10;0.10;;;;;;;10.86;82.58;100116.66;4889396;29;20032;-80
2021/01/14 07:12:42;;;;;;;0.17;0.10;;;;;;;10.83;82.73;100109.03;4873229;29;20468;-75
2021/01/14 07:15:16;;;;;;;1.60;0.10;;;;;;;10.77;82.88;100096.44;4879972;29;20033;-77
2021/01/14 07:17:47;;;;;;;0.00;0.00;;;;;;;10.88;83.23;100109.03;4875161;29;20036;-77
2021/01/14 07:20:14;;;;;;;0.20;0.00;;;;;;;10.81;82.68;100092.06;4881129;29;20061;-77
2021/01/14 07:22:43;;;;;;;0.08;0.08;;;;;;;10.94;82.81;100104.38;4865245;29;20116;-79
2021/01/14 07:25:10;;;;;;;0.10;0.10;;;;;;;10.90;82.81;100101.34;4874858;29;20029;-75
2021/01/14 07:27:37;;;;;;;0.10;0.10;;;;;;;10.91;82.62;100096.72;4873899;29;20021;-77
2021/01/14 07:30:04;;;;;;;0.10;0.10;;;;;;;10.92;82.83;100112.84;4874007;29;20038;-77
2021/01/14 07:32:52;;;;;;;0.28;0.25;;;;;;;10.94;82.43;100113.38;4880434;29;20108;-77
2021/01/14 07:35:37;;;;;;;0.43;0.20;;;;;;;10.93;82.65;100117.22;4870038;29;20541;-76
2021/01/14 07:38:04;;;;;;;0.17;0.10;;;;;;;10.88;83.10;100114.50;4877270;29;20132;-76
2021/01/14 07:40:35;;;;;;;0.20;0.20;;;;;;;10.91;83.05;100113.13;4882501;29;20025;-76
2021/01/14 07:43:03;;;;;;;0.38;0.20;;;;;;;10.88;83.19;100117.22;4882022;29;20024;-77
2021/01/14 07:45:30;;;;;;;0.47;0.30;;;;;;;10.83;83.45;100106.28;4877610;29;20484;-78
2021/01/14 07:48:14;;;;;;;0.25;0.25;;;;;;;10.82;83.00;100104.66;4879196;29;20055;-78
2021/01/14 07:50:49;;;;;;;0.20;0.20;;;;;;;10.82;82.96;100104.66;4872482;29;20469;-77
2021/01/14 07:53:15;;;;;;;6.68;0.40;;;;;;;10.76;83.05;100111.22;4883357;29;20388;-77
2021/01/14 07:55:40;;;;;;;3.03;0.30;;;;;;;10.79;83.57;100105.19;4859462;29;20029;-77
2021/01/14 07:58:13;;;;;;;1.02;0.38;;;;;;;10.85;83.72;100119.69;4879500;29;20021;-81
2021/01/14 08:00:42;;;;;;;0.68;0.68;;;;;;;10.79;83.92;100110.66;4873487;29;20043;-78
2021/01/14 08:03:14;;;;;;;0.52;0.50;;;;;;;10.76;84.15;100108.47;4894582;29;20036;-79
2021/01/14 08:05:56;;;;;;;0.68;0.68;;;;;;;10.73;83.71;100100.81;4872049;29;20048;-82
2021/01/14 08:08:36;;;;;;;0.40;0.40;;;;;;;10.75;84.14;100109.59;4874513;29;20025;-84
2021/01/14 08:11:17;;;;;;;0.63;0.63;;;;;;;10.72;84.11;100104.66;4874181;29;20413;-79
2021/01/14 08:14:27;;;;;;;0.60;0.60;;;;;;;10.76;84.16;100117.53;4873108;29;20084;-78
2021/01/14 08:16:58;;;;;;;0.55;0.55;;;;;;;10.65;84.64;100111.22;4872903;29;20052;-81
2021/01/14 08:19:29;;;;;;;1.10;0.52;;;;;;;10.70;85.16;100115.06;4883594;29;20064;-81
2021/01/14 08:21:58;;;;;;;1.13;0.55;;;;;;;10.65;85.12;100126.81;4879686;29;20033;-80
2021/01/14 08:24:52;;;;;;;0.40;0.40;;;;;;;10.61;85.25;100120.25;4896569;29;20041;-80
2021/01/14 08:27:28;;;;;;;0.55;0.43;;;;;;;10.53;85.47;100118.91;4903331;29;20056;-79
2021/01/14 08:29:57;;;;;;;0.17;0.17;;;;;;;10.54;85.58;100120.53;4885876;29;20037;-79
2021/01/14 08:32:28;;;;;;;0.43;0.28;;;;;;;10.51;85.82;100121.06;4874710;29;20437;-80
2021/01/14 08:35:00;;;;;;;0.10;0.10;;;;;;;10.45;86.08;100119.44;4880283;29;20153;-78
2021/01/14 08:37:32;;;;;;;0.30;0.30;;;;;;;10.45;86.30;100130.34;4882087;29;20488;-80
2021/01/14 08:40:12;;;;;;;0.20;0.20;;;;;;;10.38;86.59;100121.59;4871759;29;20040;-81
2021/01/14 08:42:40;;;;;;;0.15;0.15;;;;;;;10.37;86.20;100117.25;4875482;29;20033;-79
2021/01/14 08:45:11;;;;;;;0.10;0.10;;;;;;;10.38;86.05;100121.59;4875805;29;20017;-80
2021/01/14 08:51:31;;;;;;;;;;;;;;;;;;;;;
2021/01/14 08:58:09;;;;;;;0.35;0.32;;;;;;;10.37;86.35;100120.78;4857837;29;20048;-81
2021/01/14 09:00:37;;;;;;;0.80;0.80;;;;;;;10.34;86.46;100136.91;4866184;29;20029;-80
2021/01/14 09:03:09;;;;;;;0.90;0.90;;;;;;;10.36;86.36;100123.81;4880957;29;20120;-79
2021/01/14 09:05:50;;;;;;;0.93;0.93;;;;;;;10.38;86.58;100116.13;4876787;29;20021;-80
2021/01/14 09:08:17;;;;;;;1.25;1.20;;;;;;;10.42;86.56;100122.72;4870092;29;20116;-82
2021/01/14 09:11:22;;;;;;;1.83;1.55;;;;;;;10.60;86.06;100137.75;4869370;29;20396;-82
2021/01/14 09:13:48;;;;;;;1.92;1.38;;;;;;;10.49;85.87;100120.53;4871938;29;20069;-79
2021/01/14 09:16:13;;;;;;;1.70;1.60;;;;;;;10.56;86.23;100129.28;4874949;29;20037;-79
2021/01/14 09:18:41;;;;;;;1.80;1.70;;;;;;;10.64;85.65;100136.09;4880152;29;20033;-78
2021/01/14 09:21:08;;;;;;;1.73;1.63;;;;;;;10.70;85.39;100142.41;4900799;29;20044;-79
2021/01/14 09:23:35;;;;;;;1.75;1.65;;;;;;;10.75;84.90;100142.41;4898545;29;20029;-78
2021/01/14 09:26:22;;;;;;;1.95;1.67;;;;;;;10.79;84.17;100149.78;4896322;29;20025;-79
2021/01/14 09:28:52;;;;;;;1.27;1.27;;;;;;;10.76;84.02;100144.03;4905365;29;20048;-77
2021/01/14 09:31:19;;;;;;;1.92;1.35;;;;;;;10.85;84.07;100167.03;4907895;29;20043;-78
2021/01/14 09:34:14;;;;;;;1.40;1.30;;;;;;;10.75;83.76;100153.34;4883789;29;20088;-79
2021/01/14 09:37:05;;;;;;;1.52;1.27;;;;;;;10.73;83.29;100155.53;4884849;29;20041;-77
2021/01/14 09:46:25;;;;;;;1.13;1.05;;;;;;;10.67;83.77;100146.50;4864764;29;20132;-80
2021/01/14 09:49:05;;;;;;;;;;;;;;;;;;;;;
2021/01/14 09:55:03;;;;;;;1.07;1.00;;;;;;;10.79;84.18;100157.16;4869243;29;20038;-79
2021/01/14 10:01:49;;;;;;;0.50;0.45;;;;;;;10.88;84.37;100185.63;4764332;30;20506;-79
2021/01/14 10:08:01;;;;;;;;;;;;;;;;;;;;;
2021/01/14 10:10:30;;;;;;;;;;;;;;;10.91;84.59;100206.16;4864372;29;20037;-78
2021/01/14 10:13:00;;;;;;;0.43;0.43;;;;;;;10.77;84.65;100182.03;4878928;29;19922;-79
2021/01/14 10:15:50;;;;;;;;;;;;;;;;;;;;;
2021/01/14 10:18:57;;;;;;;;;;;;;;;;;;;;;
2021/01/14 10:21:28;;;;;;;;;;;;;;;10.83;83.49;100210.22;4879724;29;20021;-77
2021/01/14 10:24:08;;;;;;;;;;;;;;;;;;;;;
2021/01/14 10:27:10;;;;;;;2.40;0.45;;;;;;;10.50;83.89;100196.00;4869643;29;20112;-78
2021/01/14 10:34:06;;;;;;;;;;;;;;;;;;;;;
2021/01/14 10:36:57;;;;;;;;;;;;;;;;;;;;;
2021/01/14 10:43:16;;;;;;;0.30;0.30;;;;;;;10.24;85.36;100227.88;4879638;29;20029;-79
2021/01/14 10:46:44;;;;;;;0.40;0.30;;;;;;;10.13;85.27;100224.28;4883760;29;20029;-80
2021/01/14 10:53:02;;;;;;;0.30;0.30;;;;;;;10.06;85.68;100207.31;4868771;29;20026;-81
2021/01/14 10:55:32;;;;;;;0.20;0.20;;;;;;;10.20;85.38;100248.63;4865297;29;20044;-81
2021/01/14 10:57:59;;;;;;;0.25;0.25;;;;;;;10.10;85.15;100233.84;4864407;29;20045;-74
2021/01/14 11:00:27;;;;;;;0.40;0.28;;;;;;;10.16;84.91;100242.84;4883485;29;20068;-80
2021/01/14 11:03:10;;;;;;;1.10;0.40;;;;;;;10.21;85.32;100253.00;4886942;29;20033;-81
2021/01/14 11:05:50;;;;;;;0.25;0.20;;;;;;;10.16;84.79;100236.59;4876703;29;20061;-81
2021/01/14 11:08:16;;;;;;;0.20;0.20;;;;;;;10.15;84.85;100254.91;4886617;29;20037;-79
2021/01/14 11:10:44;;;;;;;0.10;0.10;;;;;;;10.14;84.46;100253.25;4899686;29;20040;-80
2021/01/14 11:13:17;;;;;;;0.20;0.10;;;;;;;10.20;84.49;100263.09;4875489;29;20029;-79
2021/01/14 11:15:44;;;;;;;0.17;0.17;;;;;;;10.13;84.33;100246.13;4862687;29;20101;-81
2021/01/14 11:18:13;;;;;;;3.50;0.75;;;;;;;10.10;84.72;100249.41;4886919;29;20089;-81
2021/01/14 11:20:38;;;;;;;0.17;0.17;;;;;;;10.20;84.77;100262.28;4884213;29;20033;-80
2021/01/14 11:23:08;;;;;;;1.73;0.20;;;;;;;10.19;84.46;100266.94;4885587;29;20033;-80
2021/01/14 11:25:51;;;;;;;0.47;0.17;;;;;;;10.21;84.45;100264.75;4876373;29;20037;-81
2021/01/14 11:28:41;;;;;;;0.15;0.15;;;;;;;10.29;84.42;100277.06;4881473;29;20175;-79
2021/01/14 11:31:07;;;;;;;0.30;0.30;;;;;;;10.14;84.93;100250.50;4875577;29;20025;-80
2021/01/14 11:33:33;;;;;;;0.10;0.10;;;;;;;10.19;84.43;100258.75;4881417;29;20460;-79
2021/01/14 11:35:59;;;;;;;0.32;0.10;;;;;;;10.30;84.46;100274.06;4858486;29;20473;-80
2021/01/14 11:38:25;;;;;;;0.20;0.20;;;;;;;10.28;84.20;100262.59;4856813;29;20025;-81
2021/01/14 11:40:54;;;;;;;0.05;0.05;;;;;;;10.24;84.30;100258.75;4858913;29;20032;-80
2021/01/14 11:43:22;;;;;;;1.02;0.20;;;;;;;10.27;83.84;100273.78;4877715;29;20369;-78
2021/01/14 11:45:48;;;;;;;0.00;0.00;;;;;;;10.22;83.10;100265.56;4876164;29;20037;-81
2021/01/14 11:48:13;;;;;;;0.28;0.10;;;;;;;10.20;82.34;100265.03;4859072;29;20489;-81
2021/01/14 11:50:40;;;;;;;0.10;0.10;;;;;;;10.19;82.61;100272.41;4867652;29;20044;-81
2021/01/14 11:53:09;;;;;;;0.20;0.20;;;;;;;10.16;82.69;100280.31;4870282;29;20115;-80
2021/01/14 11:55:34;;;;;;;0.10;0.10;;;;;;;10.17;82.18;100273.75;4880659;29;20045;-80
2021/01/14 11:58:03;;;;;;;0.13;0.10;;;;;;;10.11;81.79;100270.19;4860727;29;20040;-81
2021/01/14 12:00:33;;;;;;;1.45;0.30;;;;;;;10.11;82.15;100260.06;4869555;29;20036;-81
2021/01/14 12:03:01;;;;;;;0.47;0.30;;;;;;;10.22;81.53;100271.88;4877242;29;20400;-80
2021/01/14 12:05:27;;;;;;;0.10;0.10;;;;;;;10.22;81.38;100282.81;4879870;29;20043;-79
2021/01/14 12:07:52;;;;;;;0.22;0.10;;;;;;;10.25;81.89;100279.53;4884427;29;20107;-80
2021/01/14 12:10:20;;;;;;;0.40;0.20;;;;;;;10.31;81.30;100281.19;4874808;29;20041;-79
2021/01/14 12:12:48;;;;;;;0.25;0.10;;;;;;;10.24;80.31;100266.13;4877725;29;20032;-82
2021/01/14 12:15:14;;;;;;;0.30;0.20;;;;;;;10.19;79.52;100250.56;4872115;29;20029;-78
2021/01/14 12:17:39;;;;;;;0.20;0.20;;;;;;;10.23;79.58;100261.75;4878980;29;20500;-78
2021/01/14 12:20:05;;;;;;;0.73;0.17;;;;;;;10.28;79.86;100273.53;4862487;29;20069;-79
2021/01/14 12:22:32;;;;;;;0.03;0.00;;;;;;;10.19;79.51;100256.00;4872601;29;20457;-78
2021/01/14 12:24:57;;;;;;;0.45;0.10;;;;;;;10.35;79.29;100270.56;4863179;29;20103;-80
2021/01/14 12:27:23;;;;;;;0.08;0.00;;;;;;;10.29;78.83;100256.06;4869200;29;20044;-79
2021/01/14 12:29:52;;;;;;;0.73;0.05;;;;;;;10.34;79.09;100254.44;4880238;29;20025;-79
2021/01/14 12:32:17;;;;;;;0.00;0.00;;;;;;;10.43;78.51;100282.91;4876684;29;20502;-81
2021/01/14 12:34:47;;;;;;;0.10;0.10;;;;;;;10.37;78.35;100262.13;4888822;29;20044;-81